sensor_id;sensor_type;location;lat;lon;timestamp;temperature;humidity
51811;DHT22;52468;40.116;18.296;2023-12-20T00:01:10;8.10;82.80
51811;DHT22;52468;40.116;18.296;2023-12-20T00:03:38;8.10;82.80
51811;DHT22;52468;40.116;18.296;2023-12-20T00:06:07;8.00;82.80
51811;DHT22;52468;40.116;18.296;2023-12-20T00:08:35;8.00;82.80
51811;DHT22;52468;40.116;18.296;2023-12-20T00:11:03;7.90;83.00
51811;DHT22;52468;40.116;18.296;2023-12-20T00:13:31;7.90;82.90
51811;DHT22;52468;40.116;18.296;2023-12-20T00:15:59;7.90;82.90
51811;DHT22;52468;40.116;18.296;2023-12-20T00:18:27;7.80;82.90
51811;DHT22;52468;40.116;18.296;2023-12-20T00:20:55;7.70;82.90
51811;DHT22;52468;40.116;18.296;2023-12-20T00:23:23;7.60;83.00
51811;DHT22;52468;40.116;18.296;2023-12-20T00:25:51;7.60;82.80
51811;DHT22;52468;40.116;18.296;2023-12-20T00:28:19;7.60;82.50
51811;DHT22;52468;40.116;18.296;2023-12-20T00:30:47;7.70;82.40
51811;DHT22;52468;40.116;18.296;2023-12-20T00:33:15;7.60;82.40
51811;DHT22;52468;40.116;18.296;2023-12-20T00:35:44;7.60;82.30
51811;DHT22;52468;40.116;18.296;2023-12-20T00:38:12;7.60;82.30
51811;DHT22;52468;40.116;18.296;2023-12-20T00:40:40;7.60;82.30
51811;DHT22;52468;40.116;18.296;2023-12-20T00:43:08;7.60;82.20
51811;DHT22;52468;40.116;18.296;2023-12-20T00:45:36;7.60;82.20
51811;DHT22;52468;40.116;18.296;2023-12-20T00:48:04;7.60;82.00
51811;DHT22;52468;40.116;18.296;2023-12-20T00:50:32;7.60;82.10
51811;DHT22;52468;40.116;18.296;2023-12-20T00:53:00;7.60;82.00
51811;DHT22;52468;40.116;18.296;2023-12-20T00:55:28;7.60;82.10
51811;DHT22;52468;40.116;18.296;2023-12-20T00:57:55;7.60;82.00
51811;DHT22;52468;40.116;18.296;2023-12-20T01:00:23;7.60;82.00
51811;DHT22;52468;40.116;18.296;2023-12-20T01:02:52;7.60;82.00
51811;DHT22;52468;40.116;18.296;2023-12-20T01:05:20;7.60;81.90
51811;DHT22;52468;40.116;18.296;2023-12-20T01:07:50;7.60;81.90
51811;DHT22;52468;40.116;18.296;2023-12-20T01:10:18;7.60;81.80
51811;DHT22;52468;40.116;18.296;2023-12-20T01:12:46;7.60;81.60
51811;DHT22;52468;40.116;18.296;2023-12-20T01:15:14;7.50;81.60
51811;DHT22;52468;40.116;18.296;2023-12-20T01:17:42;7.40;81.60
51811;DHT22;52468;40.116;18.296;2023-12-20T01:20:10;7.30;81.80
51811;DHT22;52468;40.116;18.296;2023-12-20T01:22:38;7.30;81.80
51811;DHT22;52468;40.116;18.296;2023-12-20T01:25:07;7.30;81.80
51811;DHT22;52468;40.116;18.296;2023-12-20T01:27:34;7.30;81.80
51811;DHT22;52468;40.116;18.296;2023-12-20T01:30:03;7.30;81.80
51811;DHT22;52468;40.116;18.296;2023-12-20T01:32:31;7.30;81.90
51811;DHT22;52468;40.116;18.296;2023-12-20T01:34:59;7.20;81.90
51811;DHT22;52468;40.116;18.296;2023-12-20T01:37:26;7.10;81.90
51811;DHT22;52468;40.116;18.296;2023-12-20T01:39:56;7.10;82.00
51811;DHT22;52468;40.116;18.296;2023-12-20T01:42:24;7.10;82.00
51811;DHT22;52468;40.116;18.296;2023-12-20T01:44:52;7.10;81.90
51811;DHT22;52468;40.116;18.296;2023-12-20T01:47:20;7.20;82.00
51811;DHT22;52468;40.116;18.296;2023-12-20T01:49:49;7.20;82.00
51811;DHT22;52468;40.116;18.296;2023-12-20T01:52:19;7.20;82.00
51811;DHT22;52468;40.116;18.296;2023-12-20T01:54:47;7.20;82.00
51811;DHT22;52468;40.116;18.296;2023-12-20T01:57:16;7.20;81.90
51811;DHT22;52468;40.116;18.296;2023-12-20T01:59:44;7.30;81.90
51811;DHT22;52468;40.116;18.296;2023-12-20T02:02:12;7.20;82.00
51811;DHT22;52468;40.116;18.296;2023-12-20T02:04:40;7.30;82.00
51811;DHT22;52468;40.116;18.296;2023-12-20T02:07:08;7.20;82.00
51811;DHT22;52468;40.116;18.296;2023-12-20T02:09:38;7.20;82.00
51811;DHT22;52468;40.116;18.296;2023-12-20T02:12:07;7.20;82.00
51811;DHT22;52468;40.116;18.296;2023-12-20T02:14:35;7.20;81.70
51811;DHT22;52468;40.116;18.296;2023-12-20T02:17:03;7.20;81.80
51811;DHT22;52468;40.116;18.296;2023-12-20T02:19:31;7.10;81.80
51811;DHT22;52468;40.116;18.296;2023-12-20T02:22:12;7.10;81.80
51811;DHT22;52468;40.116;18.296;2023-12-20T02:24:40;7.10;81.90
51811;DHT22;52468;40.116;18.296;2023-12-20T02:27:08;7.10;81.80
51811;DHT22;52468;40.116;18.296;2023-12-20T02:29:36;7.10;81.70
51811;DHT22;52468;40.116;18.296;2023-12-20T02:32:04;7.10;81.70
51811;DHT22;52468;40.116;18.296;2023-12-20T02:34:32;7.00;81.80
51811;DHT22;52468;40.116;18.296;2023-12-20T02:37:00;7.10;81.80
51811;DHT22;52468;40.116;18.296;2023-12-20T02:39:28;7.00;81.80
51811;DHT22;52468;40.116;18.296;2023-12-20T02:41:56;7.00;81.80
51811;DHT22;52468;40.116;18.296;2023-12-20T02:44:24;7.00;82.20
51811;DHT22;52468;40.116;18.296;2023-12-20T02:46:52;6.90;82.40
51811;DHT22;52468;40.116;18.296;2023-12-20T02:49:20;7.00;82.10
51811;DHT22;52468;40.116;18.296;2023-12-20T02:51:48;7.00;82.00
51811;DHT22;52468;40.116;18.296;2023-12-20T02:54:16;7.00;81.90
51811;DHT22;52468;40.116;18.296;2023-12-20T02:56:43;7.00;81.80
51811;DHT22;52468;40.116;18.296;2023-12-20T02:59:11;7.00;81.90
51811;DHT22;52468;40.116;18.296;2023-12-20T03:01:43;7.00;81.90
51811;DHT22;52468;40.116;18.296;2023-12-20T03:04:12;7.00;81.90
51811;DHT22;52468;40.116;18.296;2023-12-20T03:06:40;7.00;81.90
51811;DHT22;52468;40.116;18.296;2023-12-20T03:09:08;6.90;81.70
51811;DHT22;52468;40.116;18.296;2023-12-20T03:11:36;6.80;82.00
51811;DHT22;52468;40.116;18.296;2023-12-20T03:14:04;6.70;82.30
51811;DHT22;52468;40.116;18.296;2023-12-20T03:16:31;6.60;82.30
51811;DHT22;52468;40.116;18.296;2023-12-20T03:19:01;6.60;82.70
51811;DHT22;52468;40.116;18.296;2023-12-20T03:21:29;6.70;82.90
51811;DHT22;52468;40.116;18.296;2023-12-20T03:23:57;6.80;82.70
51811;DHT22;52468;40.116;18.296;2023-12-20T03:26:25;6.80;82.60
51811;DHT22;52468;40.116;18.296;2023-12-20T03:28:53;6.90;82.40
51811;DHT22;52468;40.116;18.296;2023-12-20T03:31:21;7.00;82.20
51811;DHT22;52468;40.116;18.296;2023-12-20T03:33:49;6.90;82.30
51811;DHT22;52468;40.116;18.296;2023-12-20T03:36:18;7.00;82.70
51811;DHT22;52468;40.116;18.296;2023-12-20T03:38:46;7.10;82.60
51811;DHT22;52468;40.116;18.296;2023-12-20T03:41:14;7.20;82.80
51811;DHT22;52468;40.116;18.296;2023-12-20T03:43:42;7.30;82.80
51811;DHT22;52468;40.116;18.296;2023-12-20T03:46:10;7.50;83.00
51811;DHT22;52468;40.116;18.296;2023-12-20T03:48:38;7.60;82.90
51811;DHT22;52468;40.116;18.296;2023-12-20T03:51:05;7.70;82.40
51811;DHT22;52468;40.116;18.296;2023-12-20T03:53:33;7.80;82.50
51811;DHT22;52468;40.116;18.296;2023-12-20T03:56:01;7.70;82.90
51811;DHT22;52468;40.116;18.296;2023-12-20T03:58:29;7.80;82.90
51811;DHT22;52468;40.116;18.296;2023-12-20T04:00:57;7.70;83.10
51811;DHT22;52468;40.116;18.296;2023-12-20T04:03:25;7.80;83.30
51811;DHT22;52468;40.116;18.296;2023-12-20T04:05:52;7.80;83.40
51811;DHT22;52468;40.116;18.296;2023-12-20T04:08:20;8.00;83.10
51811;DHT22;52468;40.116;18.296;2023-12-20T04:10:48;8.00;82.80
51811;DHT22;52468;40.116;18.296;2023-12-20T04:13:16;8.10;82.40
51811;DHT22;52468;40.116;18.296;2023-12-20T04:15:44;8.20;82.00
51811;DHT22;52468;40.116;18.296;2023-12-20T04:18:11;8.20;81.80
51811;DHT22;52468;40.116;18.296;2023-12-20T04:20:39;8.30;81.60
51811;DHT22;52468;40.116;18.296;2023-12-20T04:23:07;8.20;81.50
51811;DHT22;52468;40.116;18.296;2023-12-20T04:25:35;8.30;81.40
51811;DHT22;52468;40.116;18.296;2023-12-20T04:28:03;8.20;81.40
51811;DHT22;52468;40.116;18.296;2023-12-20T04:30:31;8.20;81.40
51811;DHT22;52468;40.116;18.296;2023-12-20T04:32:59;8.20;81.30
51811;DHT22;52468;40.116;18.296;2023-12-20T04:35:27;8.10;81.50
51811;DHT22;52468;40.116;18.296;2023-12-20T04:37:54;8.20;81.60
51811;DHT22;52468;40.116;18.296;2023-12-20T04:40:22;8.20;81.30
51811;DHT22;52468;40.116;18.296;2023-12-20T04:42:50;8.10;81.20
51811;DHT22;52468;40.116;18.296;2023-12-20T04:45:18;8.00;81.20
51811;DHT22;52468;40.116;18.296;2023-12-20T04:47:47;7.80;81.30
51811;DHT22;52468;40.116;18.296;2023-12-20T04:50:15;7.70;81.70
51811;DHT22;52468;40.116;18.296;2023-12-20T04:52:43;7.60;82.10
51811;DHT22;52468;40.116;18.296;2023-12-20T04:55:11;7.70;82.30
51811;DHT22;52468;40.116;18.296;2023-12-20T04:57:39;7.60;82.20
51811;DHT22;52468;40.116;18.296;2023-12-20T05:00:07;7.60;82.20
51811;DHT22;52468;40.116;18.296;2023-12-20T05:02:38;7.60;82.20
51811;DHT22;52468;40.116;18.296;2023-12-20T05:05:06;7.50;82.10
51811;DHT22;52468;40.116;18.296;2023-12-20T05:07:34;7.50;82.30
51811;DHT22;52468;40.116;18.296;2023-12-20T05:10:03;7.40;82.20
51811;DHT22;52468;40.116;18.296;2023-12-20T05:12:32;7.40;82.30
51811;DHT22;52468;40.116;18.296;2023-12-20T05:15:00;7.40;82.30
51811;DHT22;52468;40.116;18.296;2023-12-20T05:17:28;7.30;82.20
51811;DHT22;52468;40.116;18.296;2023-12-20T05:19:56;7.30;82.30
51811;DHT22;52468;40.116;18.296;2023-12-20T05:22:24;7.30;82.30
51811;DHT22;52468;40.116;18.296;2023-12-20T05:24:52;7.30;82.40
51811;DHT22;52468;40.116;18.296;2023-12-20T05:27:20;7.20;82.70
51811;DHT22;52468;40.116;18.296;2023-12-20T05:29:47;7.20;83.00
51811;DHT22;52468;40.116;18.296;2023-12-20T05:32:16;7.30;82.90
51811;DHT22;52468;40.116;18.296;2023-12-20T05:34:44;7.30;82.80
51811;DHT22;52468;40.116;18.296;2023-12-20T05:37:12;7.30;82.80
51811;DHT22;52468;40.116;18.296;2023-12-20T05:39:39;7.40;82.60
51811;DHT22;52468;40.116;18.296;2023-12-20T05:42:07;7.30;82.50
51811;DHT22;52468;40.116;18.296;2023-12-20T05:44:35;7.40;82.60
51811;DHT22;52468;40.116;18.296;2023-12-20T05:47:04;7.40;82.60
51811;DHT22;52468;40.116;18.296;2023-12-20T05:49:32;7.50;82.20
51811;DHT22;52468;40.116;18.296;2023-12-20T05:51:59;7.50;82.00
51811;DHT22;52468;40.116;18.296;2023-12-20T05:54:27;7.50;81.90
51811;DHT22;52468;40.116;18.296;2023-12-20T05:56:55;7.50;81.60
51811;DHT22;52468;40.116;18.296;2023-12-20T05:59:23;7.50;81.80
51811;DHT22;52468;40.116;18.296;2023-12-20T06:01:51;7.50;81.80
51811;DHT22;52468;40.116;18.296;2023-12-20T06:04:19;7.50;81.80
51811;DHT22;52468;40.116;18.296;2023-12-20T06:06:48;7.40;82.10
51811;DHT22;52468;40.116;18.296;2023-12-20T06:09:16;7.50;82.00
51811;DHT22;52468;40.116;18.296;2023-12-20T06:11:44;7.50;81.80
51811;DHT22;52468;40.116;18.296;2023-12-20T06:14:11;7.50;81.80
51811;DHT22;52468;40.116;18.296;2023-12-20T06:16:39;7.40;81.70
51811;DHT22;52468;40.116;18.296;2023-12-20T06:19:07;7.40;81.70
51811;DHT22;52468;40.116;18.296;2023-12-20T06:21:35;7.30;81.70
51811;DHT22;52468;40.116;18.296;2023-12-20T06:24:03;7.20;81.90
51811;DHT22;52468;40.116;18.296;2023-12-20T06:26:31;7.30;82.20
51811;DHT22;52468;40.116;18.296;2023-12-20T06:28:59;7.40;82.20
51811;DHT22;52468;40.116;18.296;2023-12-20T06:31:27;7.40;82.40
51811;DHT22;52468;40.116;18.296;2023-12-20T06:33:55;7.50;82.30
51811;DHT22;52468;40.116;18.296;2023-12-20T06:36:26;7.40;82.60
51811;DHT22;52468;40.116;18.296;2023-12-20T06:38:54;7.40;82.70
51811;DHT22;52468;40.116;18.296;2023-12-20T06:41:22;7.50;82.90
51811;DHT22;52468;40.116;18.296;2023-12-20T06:43:52;7.50;82.70
51811;DHT22;52468;40.116;18.296;2023-12-20T06:46:20;7.70;82.80
51811;DHT22;52468;40.116;18.296;2023-12-20T06:48:48;7.90;82.40
51811;DHT22;52468;40.116;18.296;2023-12-20T06:51:16;8.00;82.30
51811;DHT22;52468;40.116;18.296;2023-12-20T06:53:45;8.00;82.00
51811;DHT22;52468;40.116;18.296;2023-12-20T06:56:13;8.20;82.10
51811;DHT22;52468;40.116;18.296;2023-12-20T06:58:41;8.30;82.00
51811;DHT22;52468;40.116;18.296;2023-12-20T07:01:14;8.40;82.10
51811;DHT22;52468;40.116;18.296;2023-12-20T07:03:42;8.50;81.90
51811;DHT22;52468;40.116;18.296;2023-12-20T07:06:10;8.60;81.80
51811;DHT22;52468;40.116;18.296;2023-12-20T07:08:39;8.70;81.80
51811;DHT22;52468;40.116;18.296;2023-12-20T07:11:07;8.80;81.90
51811;DHT22;52468;40.116;18.296;2023-12-20T07:13:35;8.90;81.90
51811;DHT22;52468;40.116;18.296;2023-12-20T07:16:04;9.00;82.00
51811;DHT22;52468;40.116;18.296;2023-12-20T07:18:31;9.10;82.10
51811;DHT22;52468;40.116;18.296;2023-12-20T07:20:59;9.10;82.00
51811;DHT22;52468;40.116;18.296;2023-12-20T07:23:27;9.20;82.20
51811;DHT22;52468;40.116;18.296;2023-12-20T07:25:55;9.10;82.00
51811;DHT22;52468;40.116;18.296;2023-12-20T07:28:23;9.20;82.50
51811;DHT22;52468;40.116;18.296;2023-12-20T07:30:52;9.30;82.90
51811;DHT22;52468;40.116;18.296;2023-12-20T07:33:20;9.50;82.60
51811;DHT22;52468;40.116;18.296;2023-12-20T07:35:48;9.60;82.40
51811;DHT22;52468;40.116;18.296;2023-12-20T07:38:16;9.70;82.40
51811;DHT22;52468;40.116;18.296;2023-12-20T07:40:44;9.70;82.10
51811;DHT22;52468;40.116;18.296;2023-12-20T07:43:12;9.80;82.50
51811;DHT22;52468;40.116;18.296;2023-12-20T07:45:40;9.80;82.50
51811;DHT22;52468;40.116;18.296;2023-12-20T07:48:08;9.90;83.00
51811;DHT22;52468;40.116;18.296;2023-12-20T07:50:36;10.10;83.20
51811;DHT22;52468;40.116;18.296;2023-12-20T07:53:04;10.30;83.20
51811;DHT22;52468;40.116;18.296;2023-12-20T07:55:32;10.40;83.30
51811;DHT22;52468;40.116;18.296;2023-12-20T07:58:00;10.50;82.70
51811;DHT22;52468;40.116;18.296;2023-12-20T08:00:28;10.50;82.60
51811;DHT22;52468;40.116;18.296;2023-12-20T08:02:56;10.60;82.90
51811;DHT22;52468;40.116;18.296;2023-12-20T08:05:24;10.70;83.00
51811;DHT22;52468;40.116;18.296;2023-12-20T08:07:51;10.80;83.30
51811;DHT22;52468;40.116;18.296;2023-12-20T08:10:19;10.90;83.50
51811;DHT22;52468;40.116;18.296;2023-12-20T08:12:47;11.00;83.30
51811;DHT22;52468;40.116;18.296;2023-12-20T08:15:15;11.20;83.50
51811;DHT22;52468;40.116;18.296;2023-12-20T08:17:43;11.40;83.60
51811;DHT22;52468;40.116;18.296;2023-12-20T08:20:11;11.60;83.50
51811;DHT22;52468;40.116;18.296;2023-12-20T08:22:39;11.70;83.40
51811;DHT22;52468;40.116;18.296;2023-12-20T08:25:07;11.80;83.60
51811;DHT22;52468;40.116;18.296;2023-12-20T08:27:42;12.00;84.30
51811;DHT22;52468;40.116;18.296;2023-12-20T08:30:10;12.20;84.30
51811;DHT22;52468;40.116;18.296;2023-12-20T08:32:38;12.30;84.00
51811;DHT22;52468;40.116;18.296;2023-12-20T08:35:06;12.50;84.10
51811;DHT22;52468;40.116;18.296;2023-12-20T08:37:34;12.70;84.50
51811;DHT22;52468;40.116;18.296;2023-12-20T08:40:03;12.80;84.20
51811;DHT22;52468;40.116;18.296;2023-12-20T08:42:31;12.90;83.30
51811;DHT22;52468;40.116;18.296;2023-12-20T08:44:59;13.00;84.10
51811;DHT22;52468;40.116;18.296;2023-12-20T08:47:27;13.30;84.80
51811;DHT22;52468;40.116;18.296;2023-12-20T08:49:55;13.50;84.60
51811;DHT22;52468;40.116;18.296;2023-12-20T08:52:28;13.60;83.10
51811;DHT22;52468;40.116;18.296;2023-12-20T08:54:56;13.50;83.50
51811;DHT22;52468;40.116;18.296;2023-12-20T08:57:24;13.50;83.70
51811;DHT22;52468;40.116;18.296;2023-12-20T08:59:52;13.50;83.90
51811;DHT22;52468;40.116;18.296;2023-12-20T09:02:20;13.60;84.40
51811;DHT22;52468;40.116;18.296;2023-12-20T09:04:48;13.70;84.10
51811;DHT22;52468;40.116;18.296;2023-12-20T09:07:26;13.80;84.20
51811;DHT22;52468;40.116;18.296;2023-12-20T09:09:54;14.10;84.60
51811;DHT22;52468;40.116;18.296;2023-12-20T09:12:22;14.10;84.40
51811;DHT22;52468;40.116;18.296;2023-12-20T09:14:51;14.30;84.30
51811;DHT22;52468;40.116;18.296;2023-12-20T09:17:19;14.40;83.90
51811;DHT22;52468;40.116;18.296;2023-12-20T09:19:48;14.40;83.80
51811;DHT22;52468;40.116;18.296;2023-12-20T09:22:16;14.50;83.90
51811;DHT22;52468;40.116;18.296;2023-12-20T09:24:45;14.70;83.70
51811;DHT22;52468;40.116;18.296;2023-12-20T09:27:13;14.80;84.00
51811;DHT22;52468;40.116;18.296;2023-12-20T09:29:40;15.00;83.80
51811;DHT22;52468;40.116;18.296;2023-12-20T09:32:08;15.00;84.00
51811;DHT22;52468;40.116;18.296;2023-12-20T09:34:36;15.20;83.70
51811;DHT22;52468;40.116;18.296;2023-12-20T09:37:05;15.30;83.90
51811;DHT22;52468;40.116;18.296;2023-12-20T09:39:33;15.30;83.90
51811;DHT22;52468;40.116;18.296;2023-12-20T09:42:03;15.40;83.60
51811;DHT22;52468;40.116;18.296;2023-12-20T09:44:32;15.50;83.70
51811;DHT22;52468;40.116;18.296;2023-12-20T09:47:03;15.60;83.60
51811;DHT22;52468;40.116;18.296;2023-12-20T09:49:32;15.60;83.50
51811;DHT22;52468;40.116;18.296;2023-12-20T09:52:01;15.60;83.60
51811;DHT22;52468;40.116;18.296;2023-12-20T09:54:29;15.70;84.00
51811;DHT22;52468;40.116;18.296;2023-12-20T09:56:58;15.80;83.90
51811;DHT22;52468;40.116;18.296;2023-12-20T09:59:26;16.00;84.10
51811;DHT22;52468;40.116;18.296;2023-12-20T10:01:55;16.20;84.00
51811;DHT22;52468;40.116;18.296;2023-12-20T10:04:24;16.10;82.40
51811;DHT22;52468;40.116;18.296;2023-12-20T10:06:55;16.00;82.80
51811;DHT22;52468;40.116;18.296;2023-12-20T10:09:24;16.20;83.70
51811;DHT22;52468;40.116;18.296;2023-12-20T10:11:54;16.50;83.80
51811;DHT22;52468;40.116;18.296;2023-12-20T10:14:22;17.00;83.80
51811;DHT22;52468;40.116;18.296;2023-12-20T10:16:53;17.30;82.90
51811;DHT22;52468;40.116;18.296;2023-12-20T10:19:21;17.60;83.00
51811;DHT22;52468;40.116;18.296;2023-12-20T10:21:49;17.80;82.00
51811;DHT22;52468;40.116;18.296;2023-12-20T10:24:18;18.10;82.40
51811;DHT22;52468;40.116;18.296;2023-12-20T10:26:46;18.30;81.70
51811;DHT22;52468;40.116;18.296;2023-12-20T10:29:14;18.30;79.80
51811;DHT22;52468;40.116;18.296;2023-12-20T10:31:42;18.10;80.40
51811;DHT22;52468;40.116;18.296;2023-12-20T10:34:10;18.20;82.30
51811;DHT22;52468;40.116;18.296;2023-12-20T10:36:38;18.40;83.10
51811;DHT22;52468;40.116;18.296;2023-12-20T10:39:07;18.70;82.00
51811;DHT22;52468;40.116;18.296;2023-12-20T10:41:37;18.90;81.50
51811;DHT22;52468;40.116;18.296;2023-12-20T10:44:10;19.00;79.70
51811;DHT22;52468;40.116;18.296;2023-12-20T10:47:05;18.80;79.00
51811;DHT22;52468;40.116;18.296;2023-12-20T10:49:36;18.70;78.40
51811;DHT22;52468;40.116;18.296;2023-12-20T10:52:06;18.60;77.60
51811;DHT22;52468;40.116;18.296;2023-12-20T10:54:34;18.50;78.00
51811;DHT22;52468;40.116;18.296;2023-12-20T10:57:05;18.50;77.70
51811;DHT22;52468;40.116;18.296;2023-12-20T10:59:36;18.60;78.30
51811;DHT22;52468;40.116;18.296;2023-12-20T11:02:04;18.70;76.80
51811;DHT22;52468;40.116;18.296;2023-12-20T11:04:55;18.80;76.70
51811;DHT22;52468;40.116;18.296;2023-12-20T11:07:32;18.70;76.30
51811;DHT22;52468;40.116;18.296;2023-12-20T11:10:19;18.50;76.40
51811;DHT22;52468;40.116;18.296;2023-12-20T11:12:57;18.30;77.30
51811;DHT22;52468;40.116;18.296;2023-12-20T11:15:26;18.50;77.80
51811;DHT22;52468;40.116;18.296;2023-12-20T11:17:56;18.50;75.70
51811;DHT22;52468;40.116;18.296;2023-12-20T11:20:38;18.50;75.70
51811;DHT22;52468;40.116;18.296;2023-12-20T11:23:07;18.30;75.70
51811;DHT22;52468;40.116;18.296;2023-12-20T11:25:52;18.40;75.80
51811;DHT22;52468;40.116;18.296;2023-12-20T11:28:22;18.40;73.20
51811;DHT22;52468;40.116;18.296;2023-12-20T11:30:55;18.50;74.20
51811;DHT22;52468;40.116;18.296;2023-12-20T11:33:45;18.50;72.80
51811;DHT22;52468;40.116;18.296;2023-12-20T11:36:18;18.60;70.70
51811;DHT22;52468;40.116;18.296;2023-12-20T11:38:57;18.70;70.10
51811;DHT22;52468;40.116;18.296;2023-12-20T11:41:26;18.80;68.10
51811;DHT22;52468;40.116;18.296;2023-12-20T11:43:54;18.80;67.80
51811;DHT22;52468;40.116;18.296;2023-12-20T11:46:23;18.90;68.20
51811;DHT22;52468;40.116;18.296;2023-12-20T11:48:51;19.10;67.00
51811;DHT22;52468;40.116;18.296;2023-12-20T11:51:19;19.20;66.30
51811;DHT22;52468;40.116;18.296;2023-12-20T11:53:51;19.30;65.50
51811;DHT22;52468;40.116;18.296;2023-12-20T11:56:20;19.20;64.40
51811;DHT22;52468;40.116;18.296;2023-12-20T11:58:48;19.30;63.30
51811;DHT22;52468;40.116;18.296;2023-12-20T12:01:17;19.30;62.60
51811;DHT22;52468;40.116;18.296;2023-12-20T12:03:47;19.40;62.10
51811;DHT22;52468;40.116;18.296;2023-12-20T12:06:15;19.20;61.60
51811;DHT22;52468;40.116;18.296;2023-12-20T12:08:42;19.10;61.00
51811;DHT22;52468;40.116;18.296;2023-12-20T12:11:10;18.80;61.00
51811;DHT22;52468;40.116;18.296;2023-12-20T12:13:38;18.70;61.70
51811;DHT22;52468;40.116;18.296;2023-12-20T12:16:06;18.60;61.60
51811;DHT22;52468;40.116;18.296;2023-12-20T12:18:34;18.70;61.70
51811;DHT22;52468;40.116;18.296;2023-12-20T12:21:03;18.90;61.90
51811;DHT22;52468;40.116;18.296;2023-12-20T12:23:33;19.20;61.10
51811;DHT22;52468;40.116;18.296;2023-12-20T12:26:04;19.20;60.20
51811;DHT22;52468;40.116;18.296;2023-12-20T12:28:32;19.10;59.70
51811;DHT22;52468;40.116;18.296;2023-12-20T12:31:02;19.00;60.00
51811;DHT22;52468;40.116;18.296;2023-12-20T12:33:30;18.80;59.60
51811;DHT22;52468;40.116;18.296;2023-12-20T12:35:57;18.80;60.10
51811;DHT22;52468;40.116;18.296;2023-12-20T12:38:26;18.80;60.00
51811;DHT22;52468;40.116;18.296;2023-12-20T12:40:54;18.80;60.20
51811;DHT22;52468;40.116;18.296;2023-12-20T12:43:22;18.80;59.60
51811;DHT22;52468;40.116;18.296;2023-12-20T12:45:50;18.80;60.00
51811;DHT22;52468;40.116;18.296;2023-12-20T12:48:18;18.90;59.50
51811;DHT22;52468;40.116;18.296;2023-12-20T12:50:46;18.90;59.00
51811;DHT22;52468;40.116;18.296;2023-12-20T12:53:14;18.80;58.80
51811;DHT22;52468;40.116;18.296;2023-12-20T12:55:42;18.80;59.40
51811;DHT22;52468;40.116;18.296;2023-12-20T12:58:10;18.70;59.60
51811;DHT22;52468;40.116;18.296;2023-12-20T13:00:38;18.60;58.90
51811;DHT22;52468;40.116;18.296;2023-12-20T13:03:06;18.60;59.00
51811;DHT22;52468;40.116;18.296;2023-12-20T13:05:34;18.40;59.20
51811;DHT22;52468;40.116;18.296;2023-12-20T13:08:03;18.30;59.10
51811;DHT22;52468;40.116;18.296;2023-12-20T13:10:31;18.20;59.30
51811;DHT22;52468;40.116;18.296;2023-12-20T13:12:58;18.20;59.70
51811;DHT22;52468;40.116;18.296;2023-12-20T13:15:26;18.10;59.80
51811;DHT22;52468;40.116;18.296;2023-12-20T13:17:54;18.10;59.50
51811;DHT22;52468;40.116;18.296;2023-12-20T13:20:22;18.10;59.60
51811;DHT22;52468;40.116;18.296;2023-12-20T13:22:50;18.00;59.80
51811;DHT22;52468;40.116;18.296;2023-12-20T13:25:18;18.00;59.80
51811;DHT22;52468;40.116;18.296;2023-12-20T13:27:46;17.80;60.10
51811;DHT22;52468;40.116;18.296;2023-12-20T13:30:16;17.80;59.90
51811;DHT22;52468;40.116;18.296;2023-12-20T13:32:44;17.60;59.70
51811;DHT22;52468;40.116;18.296;2023-12-20T13:35:12;17.60;59.60
51811;DHT22;52468;40.116;18.296;2023-12-20T13:37:40;17.50;58.50
51811;DHT22;52468;40.116;18.296;2023-12-20T13:40:08;17.40;57.70
51811;DHT22;52468;40.116;18.296;2023-12-20T13:42:36;17.30;57.60
51811;DHT22;52468;40.116;18.296;2023-12-20T13:45:04;17.10;57.40
51811;DHT22;52468;40.116;18.296;2023-12-20T13:47:33;17.10;57.30
51811;DHT22;52468;40.116;18.296;2023-12-20T13:50:01;17.00;57.60
51811;DHT22;52468;40.116;18.296;2023-12-20T13:52:30;17.00;57.70
51811;DHT22;52468;40.116;18.296;2023-12-20T13:54:57;16.80;58.00
51811;DHT22;52468;40.116;18.296;2023-12-20T13:57:25;16.80;57.80
51811;DHT22;52468;40.116;18.296;2023-12-20T13:59:57;16.80;58.00
51811;DHT22;52468;40.116;18.296;2023-12-20T14:02:25;16.70;58.30
51811;DHT22;52468;40.116;18.296;2023-12-20T14:04:54;16.70;58.40
51811;DHT22;52468;40.116;18.296;2023-12-20T14:07:22;16.70;58.70
51811;DHT22;52468;40.116;18.296;2023-12-20T14:09:50;16.60;59.00
51811;DHT22;52468;40.116;18.296;2023-12-20T14:12:18;16.50;59.30
51811;DHT22;52468;40.116;18.296;2023-12-20T14:14:46;16.40;59.70
51811;DHT22;52468;40.116;18.296;2023-12-20T14:17:14;16.40;59.70
51811;DHT22;52468;40.116;18.296;2023-12-20T14:19:41;16.20;60.20
51811;DHT22;52468;40.116;18.296;2023-12-20T14:22:09;16.10;60.60
51811;DHT22;52468;40.116;18.296;2023-12-20T14:24:37;16.00;60.90
51811;DHT22;52468;40.116;18.296;2023-12-20T14:27:05;16.00;61.30
51811;DHT22;52468;40.116;18.296;2023-12-20T14:29:33;15.80;61.80
51811;DHT22;52468;40.116;18.296;2023-12-20T14:32:01;15.70;62.30
51811;DHT22;52468;40.116;18.296;2023-12-20T14:34:30;15.60;62.50
51811;DHT22;52468;40.116;18.296;2023-12-20T14:36:58;15.60;63.00
51811;DHT22;52468;40.116;18.296;2023-12-20T14:39:26;15.50;63.50
51811;DHT22;52468;40.116;18.296;2023-12-20T14:41:54;15.40;63.70
51811;DHT22;52468;40.116;18.296;2023-12-20T14:44:22;15.30;64.30
51811;DHT22;52468;40.116;18.296;2023-12-20T14:46:50;15.20;64.70
51811;DHT22;52468;40.116;18.296;2023-12-20T14:49:18;15.20;64.90
51811;DHT22;52468;40.116;18.296;2023-12-20T14:51:46;15.00;65.60
51811;DHT22;52468;40.116;18.296;2023-12-20T14:54:15;15.00;66.10
51811;DHT22;52468;40.116;18.296;2023-12-20T14:56:43;14.90;66.40
51811;DHT22;52468;40.116;18.296;2023-12-20T14:59:11;14.80;66.50
51811;DHT22;52468;40.116;18.296;2023-12-20T15:01:39;14.70;66.80
51811;DHT22;52468;40.116;18.296;2023-12-20T15:04:08;14.60;67.20
51811;DHT22;52468;40.116;18.296;2023-12-20T15:06:36;14.50;67.50
51811;DHT22;52468;40.116;18.296;2023-12-20T15:09:04;14.50;67.70
51811;DHT22;52468;40.116;18.296;2023-12-20T15:11:32;14.30;68.40
51811;DHT22;52468;40.116;18.296;2023-12-20T15:14:00;14.30;68.40
51811;DHT22;52468;40.116;18.296;2023-12-20T15:16:28;14.20;68.80
51811;DHT22;52468;40.116;18.296;2023-12-20T15:18:56;14.10;68.80
51811;DHT22;52468;40.116;18.296;2023-12-20T15:21:25;14.00;69.10
51811;DHT22;52468;40.116;18.296;2023-12-20T15:23:59;13.90;69.50
51811;DHT22;52468;40.116;18.296;2023-12-20T15:26:38;13.80;70.10
51811;DHT22;52468;40.116;18.296;2023-12-20T15:29:06;13.60;70.30
51811;DHT22;52468;40.116;18.296;2023-12-20T15:31:44;13.50;70.70